createdAt,value
2022-11-05T00:00:38.461Z,16.73
2022-11-05T00:03:24.769Z,17.02
2022-11-05T00:06:12.463Z,16.90
2022-11-05T00:08:59.606Z,17.83
2022-11-05T00:11:47.091Z,17.52
2022-11-05T00:14:33.526Z,18.38
2022-11-05T00:17:00.967Z,17.98
2022-11-05T00:19:28.297Z,18.67
2022-11-05T00:22:14.098Z,19.40
2022-11-05T00:25:00.136Z,19.08
2022-11-05T00:27:27.867Z,19.20
2022-11-05T00:29:55.286Z,18.20
2022-11-05T00:32:23.495Z,18.10
2022-11-05T00:34:50.967Z,20.20
2022-11-05T00:37:18.246Z,23.65
2022-11-05T00:39:45.578Z,19.77
2022-11-05T00:42:31.125Z,19.80
2022-11-05T00:45:04.621Z,21.30
2022-11-05T00:47:51.653Z,19.97
2022-11-05T00:50:20.813Z,21.17
2022-11-05T00:52:56.089Z,20.40
2022-11-05T00:55:29.015Z,21.02
2022-11-05T00:57:58.173Z,18.27
2022-11-05T01:00:30.463Z,19.53
2022-11-05T01:02:59.261Z,19.10
2022-11-05T01:05:26.835Z,18.67
2022-11-05T01:07:54.627Z,19.80
2022-11-05T01:10:22.518Z,18.42
2022-11-05T01:12:50.500Z,19.87
2022-11-05T01:15:19.639Z,18.58
2022-11-05T01:17:47.092Z,20.25
2022-11-05T01:20:14.569Z,19.67
2022-11-05T01:22:41.940Z,19.63
2022-11-05T01:25:10.518Z,18.57
2022-11-05T01:27:38.686Z,19.30
2022-11-05T01:30:08.038Z,19.75
2022-11-05T01:32:37.165Z,19.27
2022-11-05T01:35:10.660Z,19.17
2022-11-05T01:37:38.305Z,18.73
2022-11-05T01:40:07.222Z,20.20
2022-11-05T01:42:35.169Z,19.65
2022-11-05T01:45:12.653Z,20.02
2022-11-05T01:47:52.615Z,19.77
2022-11-05T01:50:29.982Z,18.73
2022-11-05T01:53:20.042Z,19.60
2022-11-05T01:55:54.016Z,18.60
2022-11-05T01:58:24.661Z,19.15
2022-11-05T02:00:52.719Z,18.40
2022-11-05T02:03:20.975Z,19.30
2022-11-05T02:05:49.957Z,18.27
2022-11-05T02:08:25.044Z,18.80
2022-11-05T02:10:52.913Z,19.00
2022-11-05T02:13:20.208Z,17.95
2022-11-05T02:16:25.809Z,18.27
2022-11-05T02:19:40.650Z,16.95
2022-11-05T02:22:39.173Z,17.80
2022-11-05T02:25:52.882Z,19.33
2022-11-05T02:28:49.627Z,17.50
2022-11-05T02:31:29.123Z,16.73
2022-11-05T02:34:33.602Z,17.30
2022-11-05T02:37:14.153Z,18.52
2022-11-05T02:39:53.934Z,17.38
2022-11-05T02:42:45.168Z,18.25
2022-11-05T02:45:47.277Z,18.23
2022-11-05T02:48:32.475Z,18.35
2022-11-05T02:51:10.149Z,17.73
2022-11-05T02:53:49.208Z,18.25
2022-11-05T02:56:30.226Z,18.45
2022-11-05T02:58:57.530Z,18.57
2022-11-05T03:01:25.224Z,18.40
2022-11-05T03:03:57.533Z,18.15
2022-11-05T03:07:20.236Z,18.30
2022-11-05T03:10:19.397Z,18.48
2022-11-05T03:12:49.592Z,16.97
2022-11-05T03:15:34.974Z,17.83
2022-11-05T03:18:16.395Z,18.23
2022-11-05T03:20:52.025Z,17.98
2022-11-05T03:23:29.718Z,18.02
2022-11-05T03:26:05.611Z,18.93
2022-11-05T03:28:36.230Z,18.00
2022-11-05T03:31:05.940Z,17.50
2022-11-05T03:33:36.782Z,17.33
2022-11-05T03:36:11.298Z,18.02
2022-11-05T03:38:42.045Z,17.43
2022-11-05T03:41:13.069Z,17.10
2022-11-05T03:43:45.195Z,17.65
2022-11-05T03:46:23.517Z,18.27
2022-11-05T03:48:55.617Z,16.83
2022-11-05T03:51:53.590Z,17.40
2022-11-05T03:54:21.153Z,16.23
2022-11-05T03:57:20.601Z,16.38
2022-11-05T03:59:50.599Z,17.27
2022-11-05T04:02:22.421Z,17.58
2022-11-05T04:04:50.374Z,16.53
2022-11-05T04:07:36.394Z,18.27
2022-11-05T04:10:23.102Z,16.33
2022-11-05T04:13:09.975Z,17.02
2022-11-05T04:15:56.211Z,17.25
2022-11-05T04:18:24.714Z,17.60
2022-11-05T04:21:10.693Z,17.52
2022-11-05T04:23:56.496Z,16.83
2022-11-05T04:26:23.811Z,17.55
2022-11-05T04:29:10.362Z,17.55
2022-11-05T04:31:38.863Z,16.60
2022-11-05T04:34:06.424Z,16.85
2022-11-05T04:36:34.372Z,17.60
2022-11-05T04:39:01.972Z,17.77
2022-11-05T04:41:29.409Z,16.38
2022-11-05T04:43:57.006Z,17.20
2022-11-05T04:46:24.822Z,17.30
2022-11-05T04:48:52.274Z,17.58
2022-11-05T04:51:19.933Z,17.40
2022-11-05T04:53:47.314Z,17.90
2022-11-05T04:56:23.202Z,17.67
2022-11-05T04:58:51.002Z,18.48
2022-11-05T05:01:25.575Z,17.85
2022-11-05T05:03:54.530Z,16.95
2022-11-05T05:06:27.361Z,18.27
2022-11-05T05:08:54.915Z,18.37
2022-11-05T05:11:22.871Z,16.98
2022-11-05T05:13:50.781Z,18.08
2022-11-05T05:16:22.640Z,17.42
2022-11-05T05:18:50.639Z,18.08
2022-11-05T05:21:38.349Z,17.50
2022-11-05T05:24:11.087Z,18.15
2022-11-05T05:26:40.485Z,17.92
2022-11-05T05:29:08.732Z,17.95
2022-11-05T05:31:36.892Z,19.05
2022-11-05T05:34:06.552Z,19.20
2022-11-05T05:36:34.564Z,18.90
2022-11-05T05:39:02.120Z,19.48
2022-11-05T05:41:29.496Z,18.05
2022-11-05T05:43:57.028Z,18.67
2022-11-05T05:46:24.770Z,18.97
2022-11-05T05:48:52.865Z,18.65
2022-11-05T05:51:20.794Z,17.15
2022-11-05T05:53:48.404Z,18.55
2022-11-05T05:56:19.451Z,17.77
2022-11-05T05:58:47.214Z,17.80
2022-11-05T06:01:19.366Z,20.05
2022-11-05T06:03:48.949Z,19.38
2022-11-05T06:06:21.908Z,18.65
2022-11-05T06:08:49.613Z,18.38
2022-11-05T06:11:17.252Z,18.20
2022-11-05T06:13:44.568Z,19.08
2022-11-05T06:16:12.052Z,18.05
2022-11-05T06:18:39.634Z,19.23
2022-11-05T06:21:08.202Z,16.20
2022-11-05T06:23:37.525Z,17.60
2022-11-05T06:26:11.189Z,19.40
2022-11-05T06:28:38.714Z,18.38
2022-11-05T06:31:06.380Z,18.55
2022-11-05T06:33:33.867Z,17.85
2022-11-05T06:36:03.077Z,17.63
2022-11-05T06:38:33.503Z,19.42
2022-11-05T06:41:04.559Z,18.02
2022-11-05T06:43:36.515Z,18.25
2022-11-05T06:46:04.279Z,19.27
2022-11-05T06:48:31.702Z,17.80
2022-11-05T06:50:59.279Z,18.65
2022-11-05T06:53:26.793Z,17.77
2022-11-05T06:55:54.127Z,16.75
2022-11-05T06:58:21.688Z,18.02
2022-11-05T07:00:49.420Z,18.20
2022-11-05T07:03:17.036Z,18.85
2022-11-05T07:05:48.353Z,18.60
2022-11-05T07:08:16.246Z,19.05
2022-11-05T07:10:43.686Z,17.58
2022-11-05T07:13:14.760Z,17.43
2022-11-05T07:15:45.832Z,16.73
2022-11-05T07:18:13.347Z,16.23
2022-11-05T07:20:40.761Z,16.65
2022-11-05T07:23:13.031Z,17.65
2022-11-05T07:25:42.103Z,15.33
2022-11-05T07:28:14.760Z,17.65
2022-11-05T07:30:42.253Z,15.68
2022-11-05T07:33:10.508Z,16.65
2022-11-05T07:35:38.112Z,17.20
2022-11-05T07:38:05.497Z,14.83
2022-11-05T07:40:32.885Z,15.15
2022-11-05T07:43:02.264Z,15.57
2022-11-05T07:45:31.477Z,14.73
2022-11-05T07:48:01.261Z,14.50
2022-11-05T07:50:34.891Z,15.73
2022-11-05T07:53:13.804Z,15.70
2022-11-05T07:55:42.357Z,14.60
2022-11-05T07:58:10.778Z,13.85
2022-11-05T08:00:38.352Z,14.55
2022-11-05T08:03:32.408Z,14.17
2022-11-05T08:06:00.489Z,13.93
2022-11-05T08:08:28.154Z,13.77
2022-11-05T08:11:03.504Z,14.65
2022-11-05T08:13:30.911Z,14.65
2022-11-05T08:15:58.443Z,14.90
2022-11-05T08:18:31.905Z,14.55
2022-11-05T08:21:01.197Z,14.18
2022-11-05T08:23:31.391Z,14.40
2022-11-05T08:25:59.147Z,13.48
2022-11-05T08:28:27.254Z,14.07
2022-11-05T08:30:57.269Z,14.57
2022-11-05T08:33:25.616Z,15.23
2022-11-05T08:35:53.357Z,14.18
2022-11-05T08:38:21.166Z,14.00
2022-11-05T08:40:56.778Z,12.80
2022-11-05T08:43:24.554Z,12.38
2022-11-05T08:45:52.351Z,12.90
2022-11-05T08:48:20.010Z,12.55
2022-11-05T08:50:49.102Z,13.30
2022-11-05T08:53:17.073Z,12.97
2022-11-05T08:56:15.818Z,12.85
2022-11-05T08:58:43.392Z,12.50
2022-11-05T09:01:10.868Z,11.95
2022-11-05T09:03:38.336Z,13.05
2022-11-05T09:06:06.241Z,12.30
2022-11-05T09:08:33.924Z,13.38
2022-11-05T09:11:01.464Z,11.45
2022-11-05T09:13:30.180Z,11.25
2022-11-05T09:15:59.747Z,10.77
2022-11-05T09:18:27.239Z,11.13
2022-11-05T09:20:54.679Z,10.48
2022-11-05T09:23:22.074Z,10.05
2022-11-05T09:25:49.382Z,9.43
2022-11-05T09:28:21.792Z,9.85
2022-11-05T09:30:51.707Z,9.40
2022-11-05T09:33:22.329Z,10.07
2022-11-05T09:35:49.877Z,10.25
2022-11-05T09:38:18.129Z,9.38
2022-11-05T09:41:12.272Z,10.00
2022-11-05T09:43:43.010Z,8.87
2022-11-05T09:46:18.110Z,9.18
2022-11-05T09:48:50.184Z,9.82
2022-11-05T09:51:23.633Z,9.98
2022-11-05T09:53:51.934Z,10.40
2022-11-05T09:56:28.008Z,9.80
2022-11-05T09:59:04.858Z,10.43
2022-11-05T10:01:38.476Z,10.82
2022-11-05T10:04:14.587Z,10.35
2022-11-05T10:06:57.137Z,9.77
2022-11-05T10:09:29.512Z,11.13
2022-11-05T10:12:12.967Z,11.10
2022-11-05T10:14:49.146Z,10.13
2022-11-05T10:17:24.738Z,11.43
2022-11-05T10:20:30.511Z,10.38
2022-11-05T10:23:02.196Z,11.30
2022-11-05T10:25:36.434Z,11.60
2022-11-05T10:28:05.261Z,11.68
2022-11-05T10:30:33.178Z,10.93
2022-11-05T10:33:05.462Z,11.18
2022-11-05T10:35:36.575Z,10.43
2022-11-05T10:38:04.961Z,10.23
2022-11-05T10:41:06.573Z,11.55
2022-11-05T10:43:42.729Z,11.75
2022-11-05T10:46:24.645Z,11.85
2022-11-05T10:49:08.320Z,10.97
2022-11-05T10:51:35.944Z,10.68
2022-11-05T10:54:17.463Z,11.10
2022-11-05T10:56:45.231Z,12.15
2022-11-05T10:59:32.866Z,11.20
2022-11-05T11:02:16.874Z,11.00
2022-11-05T11:04:44.540Z,10.32
2022-11-05T11:07:24.735Z,9.80
2022-11-05T11:09:52.823Z,11.00
2022-11-05T11:12:40.530Z,11.82
2022-11-05T11:15:25.670Z,11.87
2022-11-05T11:17:55.908Z,11.75
2022-11-05T11:20:30.519Z,11.90
2022-11-05T11:23:14.397Z,11.18
2022-11-05T11:25:58.435Z,11.73
2022-11-05T11:28:29.965Z,11.53
2022-11-05T11:31:24.287Z,11.00
2022-11-05T11:33:59.109Z,11.68
2022-11-05T11:36:33.908Z,12.57
2022-11-05T11:39:06.446Z,12.93
2022-11-05T11:41:42.165Z,11.50
2022-11-05T11:44:18.154Z,12.23
2022-11-05T11:46:51.468Z,11.60
2022-11-05T11:49:56.618Z,12.68
2022-11-05T11:52:36.131Z,12.43
2022-11-05T11:55:13.126Z,11.77
2022-11-05T11:57:52.626Z,12.65
2022-11-05T12:00:23.680Z,12.60
2022-11-05T12:02:58.790Z,12.65
2022-11-05T12:05:52.651Z,21.50
2022-11-05T12:08:29.144Z,14.00
2022-11-05T12:11:01.043Z,18.20
2022-11-05T12:13:37.440Z,14.82
2022-11-05T12:16:25.225Z,18.08
2022-11-05T12:19:26.039Z,14.38
2022-11-05T12:22:04.199Z,22.10
2022-11-05T12:25:09.263Z,55.17
2022-11-05T12:27:58.061Z,45.70
2022-11-05T12:30:25.931Z,29.88
2022-11-05T12:33:08.319Z,13.25
2022-11-05T12:35:57.577Z,12.33
2022-11-05T12:38:43.414Z,12.52
2022-11-05T12:41:22.473Z,12.48
2022-11-05T12:44:16.024Z,12.52
2022-11-05T12:46:58.392Z,12.50
2022-11-05T12:49:31.246Z,12.97
2022-11-05T12:52:15.289Z,12.40
2022-11-05T12:55:04.387Z,11.63
2022-11-05T12:57:36.786Z,12.18
2022-11-05T13:00:19.241Z,12.25
2022-11-05T13:02:53.019Z,11.90
2022-11-05T13:05:26.428Z,13.15
2022-11-05T13:08:09.049Z,11.70
2022-11-05T13:11:05.496Z,11.85
2022-11-05T13:14:16.520Z,12.23
2022-11-05T13:16:51.259Z,12.17
2022-11-05T13:19:31.956Z,11.52
2022-11-05T13:22:26.959Z,11.15
2022-11-05T13:24:58.786Z,11.40
2022-11-05T13:27:34.966Z,10.90
2022-11-05T13:30:07.603Z,11.20
2022-11-05T13:32:38.778Z,10.45
2022-11-05T13:35:39.863Z,11.20
2022-11-05T13:39:21.670Z,10.65
2022-11-05T13:43:04.847Z,10.80
2022-11-05T14:17:31.732Z,11.80
2022-11-05T14:20:05.301Z,12.98
2022-11-05T14:22:34.916Z,13.82
2022-11-05T14:25:22.518Z,13.70
2022-11-05T14:27:52.471Z,12.65
2022-11-05T14:30:48.044Z,12.48
2022-11-05T14:33:17.291Z,13.20
2022-11-05T14:35:45.027Z,11.63
2022-11-05T14:38:22.773Z,12.47
2022-11-05T14:40:59.630Z,13.27
2022-11-05T14:43:32.389Z,11.77
2022-11-05T14:46:09.796Z,12.73
2022-11-05T14:48:53.797Z,11.68
2022-11-05T14:51:38.288Z,12.33
2022-11-05T14:54:25.093Z,11.75
2022-11-05T14:57:00.541Z,11.68
2022-11-05T14:59:29.806Z,12.23
2022-11-05T15:02:13.910Z,11.35
2022-11-05T15:04:46.983Z,11.20
2022-11-05T15:07:25.959Z,11.77
2022-11-05T15:09:53.960Z,12.10
2022-11-05T15:12:38.173Z,11.82
2022-11-05T15:15:24.693Z,12.50
2022-11-05T15:18:13.911Z,11.67
2022-11-05T15:20:51.187Z,11.63
2022-11-05T15:23:24.958Z,11.98
2022-11-05T15:25:56.773Z,11.38
2022-11-05T15:28:36.699Z,12.52
2022-11-05T15:31:13.000Z,11.33
2022-11-05T15:33:42.786Z,12.30
2022-11-05T15:36:18.975Z,12.57
2022-11-05T15:39:15.239Z,12.15
2022-11-05T15:41:36.849Z,12.13
2022-11-05T15:44:04.575Z,12.30
2022-11-05T15:46:32.285Z,12.25
2022-11-05T15:49:07.407Z,11.23
2022-11-05T15:51:36.899Z,11.75
2022-11-05T15:54:29.110Z,11.55
2022-11-05T15:56:58.829Z,10.87
2022-11-05T15:59:28.284Z,10.55
2022-11-05T16:01:57.976Z,11.20
2022-11-05T16:04:30.415Z,10.75
2022-11-05T16:07:11.519Z,10.93
2022-11-05T16:09:42.010Z,11.37
2022-11-05T16:12:25.555Z,11.40
2022-11-05T16:15:02.035Z,10.85
2022-11-05T16:17:48.108Z,11.82
2022-11-05T16:20:32.494Z,11.20
2022-11-05T16:23:06.533Z,10.97
2022-11-05T16:25:43.107Z,10.77
2022-11-05T16:28:26.359Z,10.73
2022-11-05T16:31:06.027Z,10.43
2022-11-05T16:33:45.340Z,11.07
2022-11-05T16:36:13.609Z,10.87
2022-11-05T16:38:43.407Z,10.30
2022-11-05T16:41:17.977Z,11.35
2022-11-05T16:44:00.878Z,9.82
2022-11-05T16:50:41.406Z,9.83
2022-11-05T16:53:35.371Z,9.07
2022-11-05T16:56:04.208Z,10.65
2022-11-05T16:58:32.164Z,11.15
2022-11-05T17:01:08.398Z,10.52
2022-11-05T17:03:36.252Z,9.73
2022-11-05T17:06:04.738Z,10.63
2022-11-05T17:08:32.095Z,10.15
2022-11-05T17:10:59.772Z,10.07
2022-11-05T17:13:27.282Z,10.13
2022-11-05T17:15:54.791Z,9.97
2022-11-05T17:18:22.396Z,9.65
2022-11-05T17:20:52.892Z,10.05
2022-11-05T17:23:22.252Z,10.20
2022-11-05T17:25:52.735Z,8.80
2022-11-05T17:28:20.921Z,8.77
2022-11-05T17:30:55.114Z,9.50
2022-11-05T17:33:23.600Z,10.63
2022-11-05T17:35:52.013Z,9.75
2022-11-05T17:38:20.363Z,9.45
2022-11-05T17:40:47.774Z,8.83
2022-11-05T17:43:16.062Z,8.90
2022-11-05T17:45:46.031Z,9.07
2022-11-05T17:48:14.125Z,8.82
2022-11-05T17:50:46.998Z,9.02
2022-11-05T17:53:16.617Z,8.10
2022-11-05T17:55:45.272Z,7.85
2022-11-05T17:58:13.159Z,8.48
2022-11-05T18:00:41.561Z,9.10
2022-11-05T18:03:10.627Z,8.27
2022-11-05T18:05:38.675Z,8.13
2022-11-05T18:08:06.844Z,9.57
2022-11-05T18:10:37.592Z,8.60
2022-11-05T18:13:05.325Z,8.65
2022-11-05T18:15:32.902Z,8.98
2022-11-05T18:18:00.236Z,8.93
2022-11-05T18:20:27.728Z,8.63
2022-11-05T18:22:55.168Z,8.60
2022-11-05T18:25:22.508Z,7.57
2022-11-05T18:27:49.903Z,8.27
2022-11-05T18:30:17.632Z,7.53
2022-11-05T18:32:45.716Z,7.95
2022-11-05T18:35:14.707Z,7.30
2022-11-05T18:37:42.138Z,6.85
2022-11-05T18:40:10.237Z,6.82
2022-11-05T18:42:37.803Z,6.30
2022-11-05T18:45:07.010Z,6.88
2022-11-05T18:47:35.056Z,7.13
2022-11-05T18:50:03.174Z,6.85
2022-11-05T18:52:32.143Z,6.13
2022-11-05T18:55:00.246Z,6.60
2022-11-05T18:57:28.200Z,6.55
2022-11-05T18:59:55.613Z,5.57
2022-11-05T19:02:23.337Z,5.57
2022-11-05T19:05:21.929Z,5.80
2022-11-05T19:07:41.679Z,5.37
2022-11-05T19:10:09.773Z,5.28
2022-11-05T19:12:37.501Z,5.88
2022-11-05T19:15:05.420Z,6.43
2022-11-05T19:17:34.295Z,5.40
2022-11-05T19:20:02.348Z,6.07
2022-11-05T19:22:29.824Z,6.15
2022-11-05T19:24:57.354Z,6.47
2022-11-05T19:27:25.115Z,6.10
2022-11-05T19:29:52.723Z,6.85
2022-11-05T19:32:21.501Z,5.80
2022-11-05T19:34:49.052Z,5.75
2022-11-05T19:37:16.757Z,5.32
2022-11-05T19:39:44.200Z,4.00
2022-11-05T19:42:11.663Z,5.88
2022-11-05T19:44:39.191Z,4.97
2022-11-05T19:47:06.896Z,5.68
2022-11-05T19:49:34.439Z,5.55
2022-11-05T19:52:01.904Z,5.50
2022-11-05T19:54:29.258Z,5.60
2022-11-05T19:56:56.645Z,5.10
2022-11-05T19:59:24.074Z,5.63
2022-11-05T20:01:51.547Z,5.18
2022-11-05T20:04:19.035Z,5.18
2022-11-05T20:06:46.555Z,5.03
2022-11-05T20:09:21.454Z,4.00
2022-11-05T20:11:50.430Z,5.00
2022-11-05T20:14:17.863Z,7.50
2022-11-05T20:16:46.552Z,4.70
2022-11-05T20:19:16.582Z,5.18
2022-11-05T20:21:44.743Z,4.77
2022-11-05T20:24:17.444Z,4.45
2022-11-05T20:26:49.612Z,4.30
2022-11-05T20:29:16.984Z,4.10
2022-11-05T20:31:44.448Z,4.30
2022-11-05T20:34:11.859Z,4.17
2022-11-05T20:36:39.711Z,4.57
2022-11-05T20:39:07.237Z,4.78
2022-11-05T20:41:34.661Z,4.10
2022-11-05T20:44:02.226Z,4.40
2022-11-05T20:46:29.607Z,5.00
2022-11-05T20:48:58.340Z,4.30
2022-11-05T20:51:25.905Z,4.80
2022-11-05T20:53:58.012Z,3.92
2022-11-05T20:56:32.036Z,4.35
2022-11-05T20:59:00.924Z,5.33
2022-11-05T21:01:30.729Z,4.40
2022-11-05T21:03:59.936Z,4.43
2022-11-05T21:06:27.308Z,4.13
2022-11-05T21:08:54.740Z,4.53
2022-11-05T21:11:22.634Z,5.67
2022-11-05T21:13:50.532Z,5.10
2022-11-05T21:16:19.472Z,5.95
2022-11-05T21:18:47.770Z,6.20
2022-11-05T21:21:19.577Z,5.70
2022-11-05T21:23:48.053Z,5.77
2022-11-05T21:26:18.063Z,6.88
2022-11-05T21:28:45.681Z,6.18
2022-11-05T21:31:13.366Z,6.25
2022-11-05T21:33:41.125Z,6.25
2022-11-05T21:36:13.534Z,6.40
2022-11-05T21:38:42.131Z,6.45
2022-11-05T21:41:11.418Z,7.63
2022-11-05T21:43:42.067Z,5.50
2022-11-05T21:46:12.602Z,5.53
2022-11-05T21:48:40.549Z,4.90
2022-11-05T21:51:26.467Z,5.60
2022-11-05T21:54:12.759Z,5.13
2022-11-05T21:56:58.827Z,5.30
2022-11-05T21:59:45.047Z,4.72
2022-11-05T22:02:14.352Z,4.77
2022-11-05T22:04:45.098Z,5.95
2022-11-05T22:07:15.461Z,5.90
2022-11-05T22:09:43.147Z,5.60
2022-11-05T22:12:11.105Z,4.13
2022-11-05T22:14:39.312Z,3.97
2022-11-05T22:17:07.558Z,5.05
2022-11-05T22:19:35.659Z,4.43
2022-11-05T22:22:04.257Z,4.40
2022-11-05T22:24:32.316Z,4.47
2022-11-05T22:27:01.332Z,4.27
2022-11-05T22:29:29.285Z,4.00
2022-11-05T22:31:57.510Z,4.65
2022-11-05T22:34:25.851Z,4.40
2022-11-05T22:36:53.805Z,4.20
2022-11-05T22:39:22.676Z,4.47
2022-11-05T22:41:53.062Z,4.35
2022-11-05T22:44:20.908Z,4.28
2022-11-05T22:46:48.542Z,3.97
2022-11-05T22:49:15.889Z,3.58
2022-11-05T22:51:43.930Z,4.17
2022-11-05T22:54:11.690Z,3.40
2022-11-05T22:56:41.626Z,4.05
2022-11-05T22:59:13.833Z,4.00
2022-11-05T23:01:44.294Z,3.67
2022-11-05T23:04:13.308Z,3.40
2022-11-05T23:06:59.330Z,3.63
2022-11-05T23:09:50.102Z,4.47
2022-11-05T23:12:27.922Z,3.28
2022-11-05T23:14:57.255Z,4.00
2022-11-05T23:17:44.154Z,3.23
2022-11-05T23:20:41.987Z,3.28
2022-11-05T23:23:31.696Z,3.67
2022-11-05T23:26:00.167Z,4.40
2022-11-05T23:28:28.988Z,3.38
2022-11-05T23:31:14.904Z,3.80
2022-11-05T23:33:42.252Z,4.28
2022-11-05T23:36:31.670Z,3.97
2022-11-05T23:38:59.918Z,3.90
2022-11-05T23:41:45.940Z,4.13
2022-11-05T23:44:31.676Z,5.17
2022-11-05T23:47:17.916Z,4.40
2022-11-05T23:49:45.443Z,4.07
2022-11-05T23:52:12.773Z,3.67
2022-11-05T23:54:40.694Z,3.63
2022-11-05T23:57:08.132Z,4.20
2022-11-05T23:59:35.685Z,4.10
